JNA438 RKPC-RKTH
Flight info
| Callsign | JNA438 |
|---|---|
| Flight time | 0h 49m |
| Altitude | 19000 |
| Route | AKPON1W AKPON Y571 PSN Y744 APARU PUDEN1 |
| Aircraft | B738/M-SDE2FGHIM3RWY/LB1 |
Departure
| Time | 2026-05-01 07:23 |
|---|---|
| Airport | Jeju International Airport (RKPC) |
Arrival
| Time | 2026-05-01 08:12 |
|---|---|
| Airport | Pohang Airport (G-815/K-3) (RKTH) |
| Time | Latitude | Longitude | Altitude | Speed | Heading |
|---|---|---|---|---|---|
| 2026-05-01 07:23 | 33.46246 | 126.39558 | 4311 ft | 243 kts | 243° |
| 2026-05-01 07:23 | 33.44365 | 126.35906 | 5686 ft | 266 kts | 242° |
| 2026-05-01 07:24 | 33.43106 | 126.34242 | 6559 ft | 279 kts | 218° |
| 2026-05-01 07:24 | 33.41245 | 126.33443 | 7334 ft | 296 kts | 188° |
| 2026-05-01 07:24 | 33.39156 | 126.33553 | 8162 ft | 306 kts | 174° |
| 2026-05-01 07:24 | 33.37029 | 126.33971 | 8948 ft | 314 kts | 172° |
| 2026-05-01 07:25 | 33.34855 | 126.34418 | 9732 ft | 321 kts | 172° |
| 2026-05-01 07:25 | 33.32702 | 126.35248 | 10368 ft | 334 kts | 150° |
| 2026-05-01 07:25 | 33.30918 | 126.37139 | 10569 ft | 356 kts | 122° |
| 2026-05-01 07:25 | 33.29969 | 126.39906 | 10758 ft | 369 kts | 94° |
| 2026-05-01 07:26 | 33.30089 | 126.42964 | 11221 ft | 370 kts | 74° |
| 2026-05-01 07:26 | 33.30546 | 126.46000 | 11929 ft | 374 kts | 76° |
| 2026-05-01 07:26 | 33.30951 | 126.49093 | 12608 ft | 379 kts | 76° |
| 2026-05-01 07:26 | 33.31327 | 126.52245 | 13216 ft | 387 kts | 77° |
| 2026-05-01 07:27 | 33.31694 | 126.55459 | 13828 ft | 393 kts | 78° |
| 2026-05-01 07:27 | 33.32140 | 126.58680 | 14415 ft | 392 kts | 69° |
| 2026-05-01 07:27 | 33.33312 | 126.61558 | 15010 ft | 384 kts | 50° |
| 2026-05-01 07:27 | 33.34822 | 126.64199 | 15626 ft | 387 kts | 49° |
| 2026-05-01 07:28 | 33.36349 | 126.66869 | 16209 ft | 392 kts | 49° |
| 2026-05-01 07:28 | 33.37876 | 126.69595 | 16817 ft | 395 kts | 50° |
| 2026-05-01 07:28 | 33.39396 | 126.72345 | 17436 ft | 399 kts | 50° |
| 2026-05-01 07:28 | 33.40929 | 126.75139 | 17973 ft | 404 kts | 50° |
| 2026-05-01 07:29 | 33.42484 | 126.77971 | 18487 ft | 409 kts | 50° |
| 2026-05-01 07:29 | 33.44049 | 126.80825 | 18919 ft | 413 kts | 50° |
| 2026-05-01 07:29 | 33.45650 | 126.83713 | 18975 ft | 419 kts | 48° |
| 2026-05-01 07:29 | 33.47404 | 126.86526 | 18992 ft | 425 kts | 45° |
| 2026-05-01 07:30 | 33.49220 | 126.89260 | 19000 ft | 423 kts | 44° |
| 2026-05-01 07:30 | 33.51061 | 126.91988 | 18990 ft | 419 kts | 44° |
| 2026-05-01 07:30 | 33.52909 | 126.94735 | 18982 ft | 417 kts | 44° |
| 2026-05-01 07:30 | 33.54693 | 126.97410 | 18982 ft | 416 kts | 44° |
| 2026-05-01 07:31 | 33.56491 | 127.00128 | 19002 ft | 416 kts | 45° |
| 2026-05-01 07:31 | 33.61887 | 127.08353 | 18996 ft | 420 kts | 45° |
| 2026-05-01 07:32 | 33.65497 | 127.13883 | 18972 ft | 422 kts | 45° |
| 2026-05-01 07:32 | 33.67306 | 127.16658 | 18980 ft | 422 kts | 45° |
| 2026-05-01 07:33 | 33.70913 | 127.22197 | 18979 ft | 421 kts | 45° |
| 2026-05-01 07:33 | 33.72741 | 127.25001 | 18991 ft | 430 kts | 45° |
| 2026-05-01 07:33 | 33.76452 | 127.30710 | 18988 ft | 432 kts | 45° |
| 2026-05-01 07:34 | 33.78299 | 127.33536 | 18971 ft | 428 kts | 44° |
| 2026-05-01 07:34 | 33.82180 | 127.38891 | 18970 ft | 423 kts | 41° |
| 2026-05-01 07:34 | 33.84159 | 127.41510 | 18973 ft | 424 kts | 41° |
| 2026-05-01 07:35 | 33.86145 | 127.44137 | 18970 ft | 425 kts | 41° |
| 2026-05-01 07:35 | 33.88135 | 127.46785 | 18965 ft | 427 kts | 41° |
| 2026-05-01 07:35 | 33.90119 | 127.49443 | 18977 ft | 428 kts | 41° |
| 2026-05-01 07:35 | 33.92107 | 127.52121 | 18966 ft | 429 kts | 41° |
| 2026-05-01 07:36 | 33.94094 | 127.54806 | 18956 ft | 430 kts | 41° |
| 2026-05-01 07:36 | 33.96080 | 127.57496 | 18951 ft | 429 kts | 41° |
| 2026-05-01 07:36 | 33.98087 | 127.60220 | 18949 ft | 429 kts | 41° |
| 2026-05-01 07:36 | 34.00063 | 127.62903 | 18947 ft | 428 kts | 41° |
| 2026-05-01 07:37 | 34.04014 | 127.68270 | 18950 ft | 427 kts | 41° |
| 2026-05-01 07:37 | 34.05987 | 127.70953 | 18945 ft | 427 kts | 41° |
| 2026-05-01 07:37 | 34.07960 | 127.73638 | 18949 ft | 427 kts | 41° |
| 2026-05-01 07:38 | 34.09929 | 127.76318 | 18937 ft | 427 kts | 41° |
| 2026-05-01 07:38 | 34.11902 | 127.79007 | 18934 ft | 428 kts | 41° |
| 2026-05-01 07:38 | 34.15816 | 127.84347 | 18927 ft | 428 kts | 41° |
| 2026-05-01 07:39 | 34.17785 | 127.87037 | 18941 ft | 428 kts | 41° |
| 2026-05-01 07:39 | 34.19751 | 127.89725 | 18935 ft | 428 kts | 41° |
| 2026-05-01 07:39 | 34.23699 | 127.95129 | 18918 ft | 428 kts | 42° |
| 2026-05-01 07:40 | 34.25671 | 127.97829 | 18911 ft | 429 kts | 42° |
| 2026-05-01 07:40 | 34.27643 | 128.00533 | 18901 ft | 429 kts | 42° |
| 2026-05-01 07:40 | 34.29615 | 128.03238 | 18911 ft | 429 kts | 42° |
| 2026-05-01 07:40 | 34.31590 | 128.05949 | 18922 ft | 429 kts | 42° |
| 2026-05-01 07:41 | 34.33560 | 128.08656 | 18910 ft | 429 kts | 42° |
| 2026-05-01 07:41 | 34.34866 | 128.10453 | 18908 ft | 429 kts | 42° |
| 2026-05-01 07:41 | 34.38812 | 128.15886 | 18904 ft | 430 kts | 42° |
| 2026-05-01 07:42 | 34.40784 | 128.18604 | 18903 ft | 429 kts | 42° |
| 2026-05-01 07:42 | 34.42779 | 128.21357 | 18903 ft | 430 kts | 42° |
| 2026-05-01 07:42 | 34.44723 | 128.24040 | 18902 ft | 430 kts | 42° |
| 2026-05-01 07:42 | 34.46695 | 128.26765 | 18897 ft | 430 kts | 42° |
| 2026-05-01 07:43 | 34.48666 | 128.29491 | 18890 ft | 430 kts | 42° |
| 2026-05-01 07:43 | 34.50635 | 128.32217 | 18889 ft | 430 kts | 42° |
| 2026-05-01 07:43 | 34.54576 | 128.37676 | 18881 ft | 430 kts | 42° |
| 2026-05-01 07:44 | 34.62219 | 128.48300 | 18879 ft | 415 kts | 42° |
| 2026-05-01 07:45 | 34.64094 | 128.50911 | 18855 ft | 402 kts | 41° |
| 2026-05-01 07:45 | 34.69500 | 128.58461 | 18664 ft | 380 kts | 41° |
| 2026-05-01 07:46 | 34.71228 | 128.60870 | 18435 ft | 377 kts | 41° |
| 2026-05-01 07:46 | 34.72946 | 128.63269 | 18215 ft | 375 kts | 41° |
| 2026-05-01 07:46 | 34.76353 | 128.68017 | 17575 ft | 373 kts | 41° |
| 2026-05-01 07:47 | 34.78059 | 128.70400 | 17182 ft | 373 kts | 42° |
| 2026-05-01 07:47 | 34.79758 | 128.72778 | 16801 ft | 371 kts | 42° |
| 2026-05-01 07:47 | 34.81417 | 128.75173 | 16418 ft | 368 kts | 42° |
| 2026-05-01 07:47 | 34.83091 | 128.77502 | 16040 ft | 363 kts | 42° |
| 2026-05-01 07:48 | 34.86362 | 128.82054 | 15390 ft | 351 kts | 42° |
| 2026-05-01 07:48 | 34.87948 | 128.84279 | 15134 ft | 345 kts | 42° |
| 2026-05-01 07:48 | 34.89510 | 128.86475 | 14896 ft | 341 kts | 43° |
| 2026-05-01 07:49 | 34.91078 | 128.88622 | 14649 ft | 336 kts | 38° |
| 2026-05-01 07:49 | 34.94906 | 128.91701 | 14207 ft | 329 kts | 17° |
| 2026-05-01 07:49 | 34.96999 | 128.92713 | 13926 ft | 326 kts | 15° |
| 2026-05-01 07:50 | 34.99108 | 128.93687 | 13558 ft | 322 kts | 15° |
| 2026-05-01 07:50 | 35.03282 | 128.95623 | 12756 ft | 315 kts | 17° |
| 2026-05-01 07:50 | 35.05289 | 128.96568 | 12390 ft | 312 kts | 17° |
| 2026-05-01 07:51 | 35.07302 | 128.97522 | 12014 ft | 309 kts | 17° |
| 2026-05-01 07:51 | 35.09294 | 128.98468 | 11628 ft | 306 kts | 17° |
| 2026-05-01 07:51 | 35.11270 | 128.99409 | 11240 ft | 304 kts | 17° |
| 2026-05-01 07:52 | 35.15121 | 129.01395 | 10637 ft | 297 kts | 20° |
| 2026-05-01 07:52 | 35.16963 | 129.02426 | 10490 ft | 286 kts | 20° |
| 2026-05-01 07:52 | 35.18730 | 129.03418 | 10368 ft | 275 kts | 20° |
| 2026-05-01 07:53 | 35.22089 | 129.05295 | 10148 ft | 257 kts | 19° |
| 2026-05-01 07:53 | 35.23685 | 129.06186 | 10064 ft | 247 kts | 19° |
| 2026-05-01 07:53 | 35.25244 | 129.07049 | 9816 ft | 245 kts | 19° |
| 2026-05-01 07:53 | 35.26785 | 129.07901 | 9586 ft | 242 kts | 19° |
| 2026-05-01 07:54 | 35.29840 | 129.09592 | 9023 ft | 240 kts | 20° |
| 2026-05-01 07:55 | 35.34356 | 129.12094 | 8231 ft | 235 kts | 19° |
| 2026-05-01 07:55 | 35.37331 | 129.13753 | 7720 ft | 237 kts | 19° |
| 2026-05-01 07:56 | 35.41952 | 129.16542 | 7061 ft | 258 kts | 35° |
| 2026-05-01 07:56 | 35.44429 | 129.19671 | 7041 ft | 253 kts | 41° |
| 2026-05-01 07:57 | 35.45589 | 129.21247 | 7042 ft | 251 kts | 41° |
| 2026-05-01 07:57 | 35.47921 | 129.24424 | 7053 ft | 249 kts | 41° |
| 2026-05-01 07:58 | 35.50205 | 129.27549 | 7046 ft | 245 kts | 41° |
| 2026-05-01 07:58 | 35.52487 | 129.30684 | 7041 ft | 247 kts | 41° |
| 2026-05-01 07:59 | 35.54791 | 129.33839 | 7038 ft | 249 kts | 41° |
| 2026-05-01 07:59 | 35.57073 | 129.36994 | 6895 ft | 244 kts | 41° |
| 2026-05-01 08:00 | 35.61894 | 129.42814 | 6045 ft | 240 kts | 36° |
| 2026-05-01 08:01 | 35.65489 | 129.47008 | 6036 ft | 238 kts | 37° |
| 2026-05-01 08:01 | 35.66703 | 129.48429 | 6040 ft | 243 kts | 36° |
| 2026-05-01 08:01 | 35.67930 | 129.49859 | 6029 ft | 243 kts | 36° |
| 2026-05-01 08:02 | 35.70824 | 129.51073 | 5747 ft | 217 kts | 353° |
| 2026-05-01 08:02 | 35.72335 | 129.50947 | 5300 ft | 218 kts | 352° |
| 2026-05-01 08:03 | 35.75249 | 129.50682 | 5021 ft | 201 kts | 351° |
| 2026-05-01 08:03 | 35.76634 | 129.50561 | 5052 ft | 197 kts | 351° |
| 2026-05-01 08:03 | 35.79392 | 129.50317 | 5039 ft | 202 kts | 351° |
| 2026-05-01 08:04 | 35.82088 | 129.50089 | 5019 ft | 183 kts | 351° |
| 2026-05-01 08:04 | 35.84575 | 129.50125 | 5009 ft | 192 kts | 18° |
| 2026-05-01 08:05 | 35.86114 | 129.53166 | 5025 ft | 225 kts | 63° |
| 2026-05-01 08:05 | 35.86623 | 129.54951 | 4919 ft | 216 kts | 63° |
| 2026-05-01 08:05 | 35.87119 | 129.56683 | 4541 ft | 214 kts | 63° |
| 2026-05-01 08:06 | 35.88105 | 129.60081 | 4161 ft | 208 kts | 63° |
| 2026-05-01 08:06 | 35.89416 | 129.63169 | 3962 ft | 197 kts | 24° |
| 2026-05-01 08:07 | 35.91964 | 129.63602 | 3727 ft | 186 kts | 354° |
| 2026-05-01 08:07 | 35.94593 | 129.63562 | 3435 ft | 190 kts | 354° |
| 2026-05-01 08:08 | 35.95906 | 129.63538 | 3284 ft | 187 kts | 354° |
| 2026-05-01 08:08 | 35.98257 | 129.62770 | 3005 ft | 174 kts | 313° |
| 2026-05-01 08:09 | 35.98939 | 129.59969 | 2671 ft | 176 kts | 273° |
| 2026-05-01 08:09 | 35.98933 | 129.58493 | 2484 ft | 168 kts | 274° |
| 2026-05-01 08:09 | 35.98927 | 129.57101 | 2339 ft | 158 kts | 274° |
| 2026-05-01 08:10 | 35.98910 | 129.54395 | 2028 ft | 157 kts | 273° |
| 2026-05-01 08:10 | 35.98892 | 129.51879 | 1647 ft | 141 kts | 276° |
| 2026-05-01 08:11 | 35.98884 | 129.49603 | 1327 ft | 133 kts | 275° |
| 2026-05-01 08:11 | 35.98833 | 129.47189 | 1045 ft | 146 kts | 272° |
| 2026-05-01 08:12 | 35.98811 | 129.44669 | 393 ft | 148 kts | 272° |
| 2026-05-01 08:12 | 35.98801 | 129.43424 | 136 ft | 140 kts | 272° |
| 2026-05-01 08:12 | 35.98791 | 129.41748 | 79 ft | 46 kts | 269° |
| 2026-05-01 08:13 | 35.98789 | 129.41491 | 78 ft | 15 kts | 264° |
| 2026-05-01 08:13 | 35.98704 | 129.41448 | 70 ft | 14 kts | 176° |
| 2026-05-01 08:13 | 35.98646 | 129.41449 | 73 ft | 0 kts | 180° |
| 2026-05-01 08:14 | 35.98626 | 129.41460 | 78 ft | 9 kts | 137° |
| 2026-05-01 08:14 | 35.98621 | 129.41585 | 77 ft | 19 kts | 88° |
| 2026-05-01 08:14 | 35.98624 | 129.41750 | 74 ft | 19 kts | 89° |
| 2026-05-01 08:15 | 35.98627 | 129.41913 | 75 ft | 19 kts | 90° |
| 2026-05-01 08:15 | 35.98630 | 129.42221 | 70 ft | 17 kts | 89° |
| 2026-05-01 08:15 | 35.98631 | 129.42368 | 77 ft | 17 kts | 89° |
| 2026-05-01 08:16 | 35.98632 | 129.42509 | 74 ft | 16 kts | 89° |
| 2026-05-01 08:16 | 35.98633 | 129.42644 | 73 ft | 15 kts | 90° |
| 2026-05-01 08:16 | 35.98634 | 129.42775 | 71 ft | 15 kts | 89° |
| 2026-05-01 08:16 | 35.98636 | 129.42900 | 67 ft | 14 kts | 89° |
| 2026-05-01 08:17 | 35.98637 | 129.43020 | 73 ft | 14 kts | 90° |
| 2026-05-01 08:17 | 35.98639 | 129.43144 | 70 ft | 15 kts | 88° |
| 2026-05-01 08:17 | 35.98618 | 129.43262 | 65 ft | 14 kts | 153° |
| 2026-05-01 08:17 | 35.98547 | 129.43317 | 69 ft | 11 kts | 127° |
| 2026-05-01 08:18 | 35.98488 | 129.43338 | 66 ft | 6 kts | 178° |
| 2026-05-01 08:18 | 35.98469 | 129.43339 | 66 ft | 0 kts | 178° |